createdAt,value
2022-09-21T00:01:09.434Z,97751.34
2022-09-21T00:03:37.766Z,97745.13
2022-09-21T00:06:08.860Z,97746.72
2022-09-21T00:08:37.034Z,97751.97
2022-09-21T00:11:05.788Z,97745.94
2022-09-21T00:13:35.083Z,97751.13
2022-09-21T00:16:07.087Z,97751.97
2022-09-21T00:18:36.192Z,97755.66
2022-09-21T00:21:10.008Z,97746.88
2022-09-21T00:23:38.216Z,97747.50
2022-09-21T00:26:08.563Z,97752.59
2022-09-21T00:28:36.697Z,97741.91
2022-09-21T00:31:05.738Z,97760.97
2022-09-21T00:33:34.009Z,97753.31
2022-09-21T00:36:06.049Z,97760.06
2022-09-21T00:38:36.422Z,97763.06
2022-09-21T00:41:05.581Z,97758.44
2022-09-21T00:43:35.808Z,97759.66
2022-09-21T00:46:06.548Z,97767.97
2022-09-21T00:48:35.169Z,97774.91
2022-09-21T00:51:06.222Z,97766.50
2022-09-21T00:53:35.894Z,97767.09
2022-09-21T00:56:04.192Z,97774.78
2022-09-21T00:58:38.199Z,97772.88
2022-09-21T01:01:06.205Z,97770.19
2022-09-21T01:03:34.392Z,97771.38
2022-09-21T01:06:02.415Z,97773.94
2022-09-21T01:08:30.811Z,97764.34
2022-09-21T01:11:20.365Z,97771.31
2022-09-21T01:13:59.792Z,97773.09
2022-09-21T01:16:33.134Z,97774.44
2022-09-21T01:19:12.952Z,97774.09
2022-09-21T01:21:53.089Z,97778.19
2022-09-21T01:24:50.359Z,97767.97
2022-09-21T01:27:52.654Z,97771.69
2022-09-21T01:30:23.691Z,97774.03
2022-09-21T01:32:59.265Z,97774.16
2022-09-21T01:35:32.147Z,97781.09
2022-09-21T01:38:04.240Z,97781.47
2022-09-21T01:40:36.034Z,97779.19
2022-09-21T01:43:06.435Z,97781.22
2022-09-21T01:45:40.322Z,97783.91
2022-09-21T01:48:09.189Z,97786.50
2022-09-21T01:50:41.398Z,97780.59
2022-09-21T01:53:13.959Z,97788.34
2022-09-21T01:55:46.845Z,97786.84
2022-09-21T01:58:20.285Z,97790.31
2022-09-21T02:00:53.818Z,97787.53
2022-09-21T02:03:26.139Z,97788.69
2022-09-21T02:05:54.796Z,97785.94
2022-09-21T02:08:22.832Z,97785.78
2022-09-21T02:10:52.615Z,97781.94
2022-09-21T02:13:25.380Z,97781.44
2022-09-21T02:16:10.816Z,97783.50
2022-09-21T02:18:48.446Z,97784.53
2022-09-21T02:21:25.553Z,97790.47
2022-09-21T02:24:04.124Z,97791.47
2022-09-21T02:26:37.372Z,97800.84
2022-09-21T02:29:17.227Z,97803.78
2022-09-21T02:31:53.530Z,97803.53
2022-09-21T02:34:29.569Z,97804.63
2022-09-21T02:37:04.131Z,97801.38
2022-09-21T02:39:36.293Z,97803.97
2022-09-21T02:42:11.049Z,97802.69
2022-09-21T02:44:43.727Z,97798.66
2022-09-21T02:47:18.864Z,97799.47
2022-09-21T02:49:51.361Z,97802.41
2022-09-21T02:52:20.648Z,97805.88
2022-09-21T02:54:51.504Z,97802.28
2022-09-21T02:57:21.591Z,97810.13
2022-09-21T02:59:49.963Z,97812.09
2022-09-21T03:02:19.137Z,97815.38
2022-09-21T03:04:50.014Z,97823.72
2022-09-21T03:07:18.342Z,97822.41
2022-09-21T03:09:46.599Z,97820.53
2022-09-21T03:12:14.548Z,97822.81
2022-09-21T03:14:42.602Z,97818.56
2022-09-21T03:17:10.428Z,97824.28
2022-09-21T03:19:39.634Z,97827.53
2022-09-21T03:22:07.556Z,97822.47
2022-09-21T03:24:47.553Z,97827.66
2022-09-21T03:27:16.190Z,97827.53
2022-09-21T03:29:44.339Z,97811.47
2022-09-21T03:32:13.886Z,97821.69
2022-09-21T03:34:43.511Z,97816.13
2022-09-21T03:37:12.533Z,97816.94
2022-09-21T03:39:40.309Z,97823.81
2022-09-21T03:42:09.945Z,97824.06
2022-09-21T03:44:38.325Z,97817.63
2022-09-21T03:47:06.724Z,97826.22
2022-09-21T03:49:35.048Z,97825.72
2022-09-21T03:52:04.699Z,97824.88
2022-09-21T03:54:32.501Z,97824.69
2022-09-21T03:57:00.394Z,97828.38
2022-09-21T03:59:28.211Z,97836.25
2022-09-21T04:01:56.004Z,97831.88
2022-09-21T04:04:23.955Z,97835.34
2022-09-21T04:06:52.020Z,97838.09
2022-09-21T04:09:21.197Z,97838.19
2022-09-21T04:11:49.220Z,97844.13
2022-09-21T04:14:17.654Z,97833.09
2022-09-21T04:16:45.509Z,97841.59
2022-09-21T04:19:13.573Z,97842.94
2022-09-21T04:21:41.389Z,97841.03
2022-09-21T04:24:09.256Z,97841.16
2022-09-21T04:26:40.786Z,97846.63
2022-09-21T04:29:08.639Z,97847.16
2022-09-21T04:31:36.620Z,97844.44
2022-09-21T04:34:04.834Z,97849.59
2022-09-21T04:36:36.473Z,97845.81
2022-09-21T04:39:05.304Z,97843.25
2022-09-21T04:41:33.181Z,97859.13
2022-09-21T04:44:02.895Z,97854.47
2022-09-21T04:46:30.891Z,97848.91
2022-09-21T04:48:58.841Z,97856.75
2022-09-21T04:51:27.006Z,97846.38
2022-09-21T04:53:54.866Z,97852.44
2022-09-21T04:56:22.792Z,97855.06
2022-09-21T04:58:50.671Z,97854.09
2022-09-21T05:01:19.981Z,97857.69
2022-09-21T05:03:48.040Z,97855.47
2022-09-21T05:06:16.129Z,97855.00
2022-09-21T05:09:01.839Z,97863.34
2022-09-21T05:11:29.982Z,97852.78
2022-09-21T05:13:57.907Z,97862.28
2022-09-21T05:16:27.145Z,97861.59
2022-09-21T05:18:55.873Z,97858.94
2022-09-21T05:21:24.066Z,97862.78
2022-09-21T05:23:52.399Z,97858.06
2022-09-21T05:26:20.318Z,97857.50
2022-09-21T05:28:48.699Z,97859.44
2022-09-21T05:31:46.873Z,97871.75
2022-09-21T05:34:31.890Z,97870.69
2022-09-21T05:37:08.615Z,97869.94
2022-09-21T05:39:37.360Z,97871.00
2022-09-21T05:42:06.463Z,97872.47
2022-09-21T05:44:34.733Z,97874.84
2022-09-21T05:47:15.473Z,97883.19
2022-09-21T05:49:51.282Z,97885.88
2022-09-21T05:52:26.587Z,97879.38
2022-09-21T05:55:03.983Z,97882.97
2022-09-21T05:57:42.169Z,97889.56
2022-09-21T06:00:17.336Z,97890.22
2022-09-21T06:03:05.787Z,97895.69
2022-09-21T06:05:33.798Z,97893.53
2022-09-21T06:08:01.739Z,97897.00
2022-09-21T06:10:34.706Z,97894.84
2022-09-21T06:13:02.760Z,97902.22
2022-09-21T06:15:30.772Z,97886.56
2022-09-21T06:18:00.278Z,97894.03
2022-09-21T06:20:28.249Z,97896.47
2022-09-21T06:23:01.857Z,97902.16
2022-09-21T06:25:29.764Z,97894.59
2022-09-21T06:28:02.308Z,97898.41
2022-09-21T06:30:30.177Z,97895.81
2022-09-21T06:33:02.507Z,97897.22
2022-09-21T06:35:31.541Z,97897.34
2022-09-21T06:38:00.444Z,97896.00
2022-09-21T06:40:28.809Z,97894.38
2022-09-21T06:42:58.285Z,97897.88
2022-09-21T06:45:26.417Z,97900.97
2022-09-21T06:47:54.591Z,97905.16
2022-09-21T06:50:24.364Z,97902.28
2022-09-21T06:52:52.336Z,97905.59
2022-09-21T06:55:20.402Z,97908.41
2022-09-21T06:57:48.326Z,97904.47
2022-09-21T07:00:16.825Z,97901.75
2022-09-21T07:02:45.668Z,97906.16
2022-09-21T07:05:14.004Z,97911.25
2022-09-21T07:07:43.291Z,97911.88
2022-09-21T07:10:15.909Z,97912.72
2022-09-21T07:12:46.540Z,97915.50
2022-09-21T07:15:15.472Z,97917.75
2022-09-21T07:17:51.564Z,97917.19
2022-09-21T07:20:20.183Z,97918.19
2022-09-21T07:22:49.664Z,97916.53
2022-09-21T07:25:17.949Z,97921.84
2022-09-21T07:27:47.694Z,97928.69
2022-09-21T07:30:15.544Z,97928.09
2022-09-21T07:32:43.714Z,97930.84
2022-09-21T07:35:12.030Z,97923.75
2022-09-21T07:37:40.149Z,97924.34
2022-09-21T07:40:10.573Z,97925.72
2022-09-21T07:42:38.479Z,97933.84
2022-09-21T07:45:07.533Z,97937.41
2022-09-21T07:47:35.539Z,97941.41
2022-09-21T07:50:03.391Z,97946.50
2022-09-21T07:52:33.155Z,97952.97
2022-09-21T07:55:01.120Z,97931.81
2022-09-21T07:57:47.781Z,97947.78
2022-09-21T08:00:16.201Z,97950.72
2022-09-21T08:02:47.612Z,97945.28
2022-09-21T08:05:16.197Z,97954.00
2022-09-21T08:07:44.272Z,97950.44
2022-09-21T08:10:12.607Z,97952.84
2022-09-21T08:12:43.894Z,97961.41
2022-09-21T08:15:30.619Z,97963.38
2022-09-21T08:18:01.325Z,97949.72
2022-09-21T08:20:29.479Z,97942.84
2022-09-21T08:22:57.684Z,97945.81
2022-09-21T09:09:27.778Z,97961.00
2022-09-21T09:12:16.443Z,97958.59
2022-09-21T09:15:01.759Z,97966.47
2022-09-21T09:17:40.339Z,97973.78
2022-09-21T09:20:14.660Z,97972.63
2022-09-21T09:22:47.419Z,97976.38
2022-09-21T09:25:21.767Z,97974.47
2022-09-21T09:27:53.771Z,97968.59
2022-09-21T09:30:23.176Z,97964.78
2022-09-21T09:32:57.123Z,97965.53
2022-09-21T09:35:30.137Z,97956.38
2022-09-21T09:38:03.823Z,97953.97
2022-09-21T09:40:50.268Z,97954.13
2022-09-21T09:43:32.459Z,97943.13
2022-09-21T09:46:11.920Z,97949.09
2022-09-21T09:48:56.138Z,97945.47
2022-09-21T09:51:23.959Z,97940.25
2022-09-21T09:53:52.592Z,97939.00
2022-09-21T09:56:21.727Z,97950.38
2022-09-21T09:58:54.307Z,97949.13
2022-09-21T10:01:40.644Z,97946.09
2022-09-21T10:04:11.980Z,97956.91
2022-09-21T10:06:45.821Z,97954.44
2022-09-21T10:09:30.976Z,97953.69
2022-09-21T10:12:06.810Z,97942.63
2022-09-21T10:14:37.558Z,97947.56
2022-09-21T10:17:08.595Z,97951.50
2022-09-21T10:19:38.145Z,97953.31
2022-09-21T10:22:06.804Z,97951.88
2022-09-21T10:24:38.935Z,97950.06
2022-09-21T10:27:14.376Z,97954.66
2022-09-21T10:29:43.532Z,97949.81
2022-09-21T10:32:22.499Z,97952.78
2022-09-21T10:35:15.915Z,97952.59
2022-09-21T10:37:46.377Z,97948.91
2022-09-21T10:40:27.814Z,97944.47
2022-09-21T10:42:59.883Z,97942.94
2022-09-21T10:45:29.803Z,97939.66
2022-09-21T10:47:59.879Z,97935.84
2022-09-21T10:50:30.355Z,97934.25
2022-09-21T10:53:01.948Z,97943.25
2022-09-21T10:55:32.135Z,97941.09
2022-09-21T10:58:01.691Z,97944.13
2022-09-21T11:00:41.373Z,97944.00
2022-09-21T11:03:39.330Z,97939.28
2022-09-21T11:06:12.679Z,97935.75
2022-09-21T11:08:46.410Z,97941.53
2022-09-21T11:11:33.530Z,97931.78
2022-09-21T11:14:11.613Z,97933.75
2022-09-21T11:16:44.817Z,97932.25
2022-09-21T11:19:22.152Z,97935.13
2022-09-21T11:21:56.401Z,97932.41
2022-09-21T11:24:33.246Z,97925.59
2022-09-21T11:27:07.414Z,97928.91
2022-09-21T11:29:43.195Z,97930.41
2022-09-21T11:32:34.792Z,97924.31
2022-09-21T11:35:24.254Z,97922.88
2022-09-21T11:38:05.243Z,97923.53
2022-09-21T11:40:54.467Z,97936.31
2022-09-21T11:43:39.924Z,97926.09
2022-09-21T11:46:19.248Z,97937.69
2022-09-21T11:49:01.284Z,97928.38
2022-09-21T11:51:40.023Z,97935.66
2022-09-21T11:54:23.158Z,97927.56
2022-09-21T11:56:57.016Z,97930.09
2022-09-21T11:59:42.616Z,97925.63
2022-09-21T12:02:32.179Z,97923.94
2022-09-21T12:05:08.085Z,97921.09
2022-09-21T12:07:54.133Z,97923.22
2022-09-21T12:10:40.310Z,97916.66
2022-09-21T12:13:21.530Z,97914.25
2022-09-21T12:15:57.943Z,97896.59
2022-09-21T12:18:32.546Z,97902.13
2022-09-21T12:21:06.718Z,97897.78
2022-09-21T12:23:41.512Z,97900.97
2022-09-21T12:26:11.529Z,97900.00
2022-09-21T12:28:42.923Z,97895.19
2022-09-21T12:31:39.088Z,97906.78
2022-09-21T12:34:17.012Z,97897.66
2022-09-21T12:36:49.577Z,97895.38
2022-09-21T12:39:24.567Z,97895.94
2022-09-21T12:41:57.446Z,97894.69
2022-09-21T12:44:33.682Z,97893.91
2022-09-21T12:47:10.121Z,97895.69
2022-09-21T12:49:50.328Z,97890.97
2022-09-21T12:52:24.374Z,97892.19
2022-09-21T12:54:58.313Z,97890.97
2022-09-21T13:00:31.276Z,97900.50
2022-09-21T13:03:10.533Z,97896.16
2022-09-21T13:05:53.048Z,97895.28
2022-09-21T13:08:27.740Z,97902.13
2022-09-21T13:11:04.692Z,97896.06
2022-09-21T13:13:36.327Z,97904.81
2022-09-21T13:16:06.506Z,97901.28
2022-09-21T13:18:36.813Z,97896.78
2022-09-21T13:21:19.107Z,97896.16
2022-09-21T13:23:53.824Z,97891.47
2022-09-21T13:26:32.654Z,97898.03
2022-09-21T13:29:04.748Z,97892.75
2022-09-21T13:31:57.579Z,97899.81
2022-09-21T13:34:36.776Z,97908.75
2022-09-21T13:37:36.153Z,97915.91
2022-09-21T13:40:34.970Z,97918.13
2022-09-21T13:43:26.003Z,97921.31
2022-09-21T13:45:59.471Z,97913.19
2022-09-21T13:48:30.380Z,97910.50
2022-09-21T13:51:01.687Z,97901.97
2022-09-21T13:53:40.011Z,97899.41
2022-09-21T13:56:10.977Z,97900.00
2022-09-21T13:58:45.989Z,97886.84
2022-09-21T14:01:42.435Z,97889.00
2022-09-21T14:04:19.675Z,97885.72
2022-09-21T14:06:51.318Z,97900.13
2022-09-21T14:09:25.701Z,97889.31
2022-09-21T14:12:00.251Z,97889.00
2022-09-21T14:14:32.092Z,97885.91
2022-09-21T14:17:01.242Z,97888.47
2022-09-21T14:20:07.140Z,97883.69
2022-09-21T14:22:40.578Z,97881.47
2022-09-21T14:25:27.653Z,97882.59
2022-09-21T14:28:00.863Z,97882.72
2022-09-21T14:30:33.436Z,97882.97
2022-09-21T14:33:13.761Z,97877.94
2022-09-21T14:35:47.391Z,97871.69
2022-09-21T14:38:20.770Z,97869.81
2022-09-21T14:40:52.097Z,97859.25
2022-09-21T14:43:25.274Z,97859.25
2022-09-21T14:46:16.832Z,97862.03
2022-09-21T14:48:55.359Z,97868.41
2022-09-21T14:51:38.204Z,97867.50
2022-09-21T14:54:26.448Z,97865.03
2022-09-21T14:57:10.980Z,97868.34
2022-09-21T14:59:52.904Z,97869.81
2022-09-21T15:02:23.605Z,97859.47
2022-09-21T15:05:01.982Z,97863.94
2022-09-21T15:07:57.137Z,97860.69
2022-09-21T15:10:54.986Z,97864.38
2022-09-21T15:14:13.434Z,97866.25
2022-09-21T15:16:43.997Z,97857.13
2022-09-21T15:19:21.540Z,97853.00
2022-09-21T15:21:51.278Z,97859.31
2022-09-21T15:24:27.028Z,97859.31
2022-09-21T15:27:03.641Z,97852.16
2022-09-21T15:29:34.781Z,97861.88
2022-09-21T15:32:04.065Z,97856.50
2022-09-21T15:34:32.286Z,97854.56
2022-09-21T15:37:16.574Z,97856.28
2022-09-21T15:39:44.940Z,97852.84
2022-09-21T15:42:20.282Z,97847.72
2022-09-21T15:44:51.061Z,97856.56
2022-09-21T15:47:23.023Z,97854.94
2022-09-21T15:49:52.349Z,97851.34
2022-09-21T15:52:28.373Z,97846.47
2022-09-21T15:55:00.533Z,97859.88
2022-09-21T15:57:39.000Z,97861.81
2022-09-21T16:00:22.631Z,97860.69
2022-09-21T16:02:57.243Z,97860.41
2022-09-21T16:05:25.617Z,97857.28
2022-09-21T16:08:06.363Z,97853.22
2022-09-21T16:10:44.666Z,97852.22
2022-09-21T16:13:36.178Z,97856.50
2022-09-21T16:16:07.658Z,97860.56
2022-09-21T16:18:48.092Z,97864.03
2022-09-21T16:21:23.739Z,97867.94
2022-09-21T16:23:55.579Z,97869.09
2022-09-21T16:26:27.001Z,97873.41
2022-09-21T16:29:16.849Z,97868.59
2022-09-21T16:31:50.171Z,97872.34
2022-09-21T16:34:36.854Z,97878.44
2022-09-21T16:37:25.263Z,97876.56
2022-09-21T16:39:54.168Z,97869.22
2022-09-21T16:42:23.238Z,97867.94
2022-09-21T16:44:51.862Z,97873.00
2022-09-21T16:47:25.260Z,97877.13
2022-09-21T16:49:56.529Z,97871.78
2022-09-21T16:52:25.057Z,97875.22
2022-09-21T16:54:54.856Z,97874.34
2022-09-21T16:57:22.618Z,97876.06
2022-09-21T16:59:51.172Z,97876.94
2022-09-21T17:02:20.782Z,97876.81
2022-09-21T17:04:49.166Z,97880.47
2022-09-21T17:07:18.969Z,97875.34
2022-09-21T17:09:48.207Z,97886.38
2022-09-21T17:12:18.338Z,97886.44
2022-09-21T17:14:47.403Z,97881.06
2022-09-21T17:17:19.375Z,97890.88
2022-09-21T17:19:50.717Z,97894.28
2022-09-21T17:22:19.202Z,97885.28
2022-09-21T17:24:52.073Z,97886.38
2022-09-21T17:27:22.659Z,97896.25
2022-09-21T17:29:51.067Z,97893.84
2022-09-21T17:32:21.255Z,97897.41
2022-09-21T17:34:56.321Z,97898.28
2022-09-21T17:37:25.150Z,97897.81
2022-09-21T17:39:53.912Z,97899.78
2022-09-21T17:42:25.133Z,97904.19
2022-09-21T17:45:11.758Z,97900.03
2022-09-21T17:47:41.004Z,97899.19
2022-09-21T17:50:23.027Z,97894.72
2022-09-21T17:53:09.060Z,97901.22
2022-09-21T17:55:37.659Z,97909.13
2022-09-21T17:58:24.412Z,97907.22
2022-09-21T18:01:01.545Z,97907.41
2022-09-21T18:03:31.742Z,97905.50
2022-09-21T18:06:02.850Z,97911.53
2022-09-21T18:08:33.422Z,97909.13
2022-09-21T18:11:16.848Z,97912.38
2022-09-21T18:13:55.455Z,97915.38
2022-09-21T18:16:28.337Z,97915.44
2022-09-21T18:19:21.679Z,97916.72
2022-09-21T18:21:56.082Z,97920.53
2022-09-21T18:24:31.149Z,97921.69
2022-09-21T18:27:00.773Z,97922.53
2022-09-21T18:29:40.654Z,97929.66
2022-09-21T18:32:41.109Z,97929.09
2022-09-21T18:35:19.680Z,97924.16
2022-09-21T18:38:02.862Z,97922.44
2022-09-21T18:40:45.468Z,97927.63
2022-09-21T18:43:26.320Z,97927.16
2022-09-21T18:46:01.870Z,97928.16
2022-09-21T18:48:41.263Z,97936.03
2022-09-21T18:51:20.380Z,97937.25
2022-09-21T18:53:52.910Z,97936.47
2022-09-21T18:56:21.445Z,97942.63
2022-09-21T18:58:50.557Z,97944.59
2022-09-21T19:01:21.952Z,97931.69
2022-09-21T19:03:50.832Z,97935.44
2022-09-21T19:06:32.612Z,97939.78
2022-09-21T19:09:15.625Z,97942.13
2022-09-21T19:11:50.663Z,97931.66
2022-09-21T19:14:23.760Z,97931.88
2022-09-21T19:17:07.080Z,97934.09
2022-09-21T19:19:45.258Z,97933.75
2022-09-21T19:22:16.734Z,97933.44
2022-09-21T19:24:57.008Z,97928.53
2022-09-21T19:27:36.009Z,97930.22
2022-09-21T19:30:09.019Z,97929.44
2022-09-21T19:32:43.711Z,97924.16
2022-09-21T19:35:21.556Z,97921.56
2022-09-21T19:37:50.655Z,97919.91
2022-09-21T19:40:22.278Z,97912.19
2022-09-21T19:43:00.451Z,97910.88
2022-09-21T19:45:36.039Z,97918.53
2022-09-21T19:48:09.917Z,97917.06
2022-09-21T19:50:41.866Z,97916.19
2022-09-21T19:53:29.950Z,97917.94
2022-09-21T19:56:18.667Z,97912.06
2022-09-21T19:59:05.022Z,97912.78
2022-09-21T20:01:36.715Z,97918.75
2022-09-21T20:04:06.368Z,97910.91
2022-09-21T20:06:43.999Z,97908.75
2022-09-21T20:09:18.382Z,97912.22
2022-09-21T20:11:52.044Z,97915.41
2022-09-21T20:14:29.283Z,97914.66
2022-09-21T20:17:00.418Z,97914.72
2022-09-21T20:19:39.029Z,97907.19
2022-09-21T20:22:12.520Z,97911.59
2022-09-21T20:24:49.847Z,97914.78
2022-09-21T20:27:32.554Z,97904.84
2022-09-21T20:30:00.391Z,97905.03
2022-09-21T20:32:28.660Z,97907.16
2022-09-21T20:34:57.122Z,97907.50
2022-09-21T20:37:26.309Z,97907.41
2022-09-21T20:39:54.702Z,97910.75
2022-09-21T20:42:26.775Z,97912.84
2022-09-21T20:44:55.240Z,97911.75
2022-09-21T20:47:23.671Z,97915.63
2022-09-21T20:49:52.121Z,97909.97
2022-09-21T20:52:20.087Z,97905.06
2022-09-21T20:54:49.590Z,97907.63
2022-09-21T20:57:18.094Z,97911.47
2022-09-21T20:59:47.892Z,97910.94
2022-09-21T21:02:16.701Z,97917.75
2022-09-21T21:04:44.583Z,97917.78
2022-09-21T21:07:12.619Z,97917.91
2022-09-21T21:09:40.384Z,97920.81
2022-09-21T21:12:09.419Z,97921.56
2022-09-21T21:14:37.499Z,97918.91
2022-09-21T21:17:07.180Z,97914.59
2022-09-21T21:19:35.302Z,97911.53
2022-09-21T21:22:03.118Z,97910.06
2022-09-21T21:24:43.723Z,97917.00
2022-09-21T21:27:14.749Z,97915.03
2022-09-21T21:29:43.094Z,97911.69
2022-09-21T21:32:13.047Z,97907.78
2022-09-21T21:34:41.119Z,97899.75
2022-09-21T21:37:09.211Z,97903.41
2022-09-21T21:39:37.011Z,97904.31
2022-09-21T21:42:05.191Z,97898.69
2022-09-21T21:44:32.992Z,97901.00
2022-09-21T21:47:20.872Z,97900.75
2022-09-21T21:49:50.068Z,97898.25
2022-09-21T21:52:17.866Z,97892.03
2022-09-21T21:54:45.636Z,97895.31
2022-09-21T21:57:14.891Z,97886.72
2022-09-21T21:59:43.226Z,97895.66
2022-09-21T22:02:11.637Z,97891.47
2022-09-21T22:04:39.676Z,97893.22
2022-09-21T22:07:08.836Z,97882.38
2022-09-21T22:09:36.627Z,97884.19
2022-09-21T22:12:04.701Z,97874.81
2022-09-21T22:14:32.529Z,97873.50
2022-09-21T22:17:01.796Z,97869.97
2022-09-21T22:19:29.669Z,97884.44
2022-09-21T22:21:57.709Z,97877.97
2022-09-21T22:24:26.943Z,97879.81
2022-09-21T22:26:54.745Z,97887.47
2022-09-21T22:29:22.883Z,97918.94
2022-09-21T22:31:51.638Z,97904.34
2022-09-21T22:34:20.262Z,97911.56
